sensor_id;sensor_type;location;lat;lon;timestamp;P1;durP1;ratioP1;P2;durP2;ratioP2
11135;SDS011;5622;50.840;4.948;2023-07-13T00:02:24;4.40;;;2.00;;
11135;SDS011;5622;50.840;4.948;2023-07-13T00:05:11;10.10;;;2.17;;
11135;SDS011;5622;50.840;4.948;2023-07-13T00:07:51;6.20;;;1.90;;
11135;SDS011;5622;50.840;4.948;2023-07-13T00:10:32;4.60;;;1.80;;
11135;SDS011;5622;50.840;4.948;2023-07-13T00:13:16;2.63;;;1.50;;
11135;SDS011;5622;50.840;4.948;2023-07-13T00:15:56;6.23;;;1.90;;
11135;SDS011;5622;50.840;4.948;2023-07-13T00:18:37;6.17;;;1.80;;
11135;SDS011;5622;50.840;4.948;2023-07-13T00:21:24;2.47;;;1.60;;
11135;SDS011;5622;50.840;4.948;2023-07-13T00:24:04;3.97;;;2.00;;
11135;SDS011;5622;50.840;4.948;2023-07-13T00:26:41;5.87;;;1.60;;
11135;SDS011;5622;50.840;4.948;2023-07-13T00:29:26;4.87;;;1.93;;
11135;SDS011;5622;50.840;4.948;2023-07-13T00:32:13;9.77;;;1.93;;
11135;SDS011;5622;50.840;4.948;2023-07-13T00:34:52;4.40;;;1.70;;
11135;SDS011;5622;50.840;4.948;2023-07-13T00:37:35;6.53;;;1.80;;
11135;SDS011;5622;50.840;4.948;2023-07-13T00:40:12;4.57;;;2.00;;
11135;SDS011;5622;50.840;4.948;2023-07-13T00:42:51;3.80;;;2.13;;
11135;SDS011;5622;50.840;4.948;2023-07-13T00:48:41;6.00;;;2.23;;
11135;SDS011;5622;50.840;4.948;2023-07-13T00:51:26;6.70;;;2.17;;
11135;SDS011;5622;50.840;4.948;2023-07-13T00:54:14;6.67;;;1.77;;
11135;SDS011;5622;50.840;4.948;2023-07-13T01:00:20;5.27;;;2.20;;
11135;SDS011;5622;50.840;4.948;2023-07-13T01:03:06;6.30;;;2.07;;
11135;SDS011;5622;50.840;4.948;2023-07-13T01:05:50;5.27;;;2.40;;
11135;SDS011;5622;50.840;4.948;2023-07-13T01:08:27;3.87;;;2.30;;
11135;SDS011;5622;50.840;4.948;2023-07-13T01:11:13;6.07;;;2.17;;
11135;SDS011;5622;50.840;4.948;2023-07-13T01:14:01;4.17;;;2.03;;
11135;SDS011;5622;50.840;4.948;2023-07-13T01:16:45;4.30;;;2.00;;
11135;SDS011;5622;50.840;4.948;2023-07-13T01:19:29;5.93;;;2.57;;
11135;SDS011;5622;50.840;4.948;2023-07-13T01:22:17;7.33;;;2.10;;
11135;SDS011;5622;50.840;4.948;2023-07-13T01:24:59;5.27;;;2.03;;
11135;SDS011;5622;50.840;4.948;2023-07-13T01:27:38;3.80;;;1.87;;
11135;SDS011;5622;50.840;4.948;2023-07-13T01:30:14;6.57;;;2.57;;
11135;SDS011;5622;50.840;4.948;2023-07-13T01:32:52;5.73;;;1.77;;
11135;SDS011;5622;50.840;4.948;2023-07-13T01:35:33;5.10;;;2.00;;
11135;SDS011;5622;50.840;4.948;2023-07-13T01:38:13;5.70;;;2.00;;
11135;SDS011;5622;50.840;4.948;2023-07-13T01:41:01;5.90;;;2.07;;
11135;SDS011;5622;50.840;4.948;2023-07-13T01:43:45;4.20;;;2.27;;
11135;SDS011;5622;50.840;4.948;2023-07-13T01:46:26;4.23;;;2.27;;
11135;SDS011;5622;50.840;4.948;2023-07-13T01:49:09;6.93;;;2.20;;
11135;SDS011;5622;50.840;4.948;2023-07-13T01:51:46;6.70;;;2.20;;
11135;SDS011;5622;50.840;4.948;2023-07-13T01:57:59;8.13;;;2.23;;
11135;SDS011;5622;50.840;4.948;2023-07-13T02:00:38;3.80;;;2.07;;
11135;SDS011;5622;50.840;4.948;2023-07-13T02:03:20;9.77;;;2.30;;
11135;SDS011;5622;50.840;4.948;2023-07-13T02:05:54;5.50;;;2.23;;
11135;SDS011;5622;50.840;4.948;2023-07-13T02:08:27;3.87;;;2.03;;
11135;SDS011;5622;50.840;4.948;2023-07-13T02:11:09;2.63;;;1.60;;
11135;SDS011;5622;50.840;4.948;2023-07-13T02:13:54;5.00;;;2.00;;
11135;SDS011;5622;50.840;4.948;2023-07-13T02:16:35;5.17;;;2.37;;
11135;SDS011;5622;50.840;4.948;2023-07-13T02:19:15;6.53;;;2.40;;
11135;SDS011;5622;50.840;4.948;2023-07-13T02:22:04;7.13;;;2.30;;
11135;SDS011;5622;50.840;4.948;2023-07-13T02:24:47;6.67;;;2.67;;
11135;SDS011;5622;50.840;4.948;2023-07-13T02:27:29;6.60;;;2.77;;
11135;SDS011;5622;50.840;4.948;2023-07-13T02:30:11;3.40;;;2.10;;
11135;SDS011;5622;50.840;4.948;2023-07-13T02:32:54;6.10;;;2.60;;
11135;SDS011;5622;50.840;4.948;2023-07-13T02:35:30;6.13;;;2.50;;
11135;SDS011;5622;50.840;4.948;2023-07-13T02:38:04;5.53;;;2.43;;
11135;SDS011;5622;50.840;4.948;2023-07-13T02:40:51;5.93;;;2.40;;
11135;SDS011;5622;50.840;4.948;2023-07-13T02:43:40;7.93;;;2.20;;
11135;SDS011;5622;50.840;4.948;2023-07-13T02:46:24;7.70;;;2.50;;
11135;SDS011;5622;50.840;4.948;2023-07-13T02:49:08;5.73;;;2.10;;
11135;SDS011;5622;50.840;4.948;2023-07-13T02:51:45;4.20;;;2.30;;
11135;SDS011;5622;50.840;4.948;2023-07-13T02:54:28;6.33;;;2.60;;
11135;SDS011;5622;50.840;4.948;2023-07-13T02:57:04;4.27;;;2.40;;
11135;SDS011;5622;50.840;4.948;2023-07-13T02:59:43;5.70;;;2.20;;
11135;SDS011;5622;50.840;4.948;2023-07-13T03:02:26;4.50;;;2.07;;
11135;SDS011;5622;50.840;4.948;2023-07-13T03:05:00;7.63;;;2.20;;
11135;SDS011;5622;50.840;4.948;2023-07-13T03:07:44;8.33;;;2.33;;
11135;SDS011;5622;50.840;4.948;2023-07-13T03:10:24;5.07;;;2.30;;
11135;SDS011;5622;50.840;4.948;2023-07-13T03:13:13;8.23;;;2.50;;
11135;SDS011;5622;50.840;4.948;2023-07-13T03:15:55;4.87;;;2.00;;
11135;SDS011;5622;50.840;4.948;2023-07-13T03:18:42;4.50;;;2.30;;
11135;SDS011;5622;50.840;4.948;2023-07-13T03:21:16;6.43;;;2.47;;
11135;SDS011;5622;50.840;4.948;2023-07-13T03:23:58;7.67;;;2.63;;
11135;SDS011;5622;50.840;4.948;2023-07-13T03:26:34;5.90;;;2.67;;
11135;SDS011;5622;50.840;4.948;2023-07-13T03:29:17;11.43;;;2.90;;
11135;SDS011;5622;50.840;4.948;2023-07-13T03:31:50;4.43;;;2.07;;
11135;SDS011;5622;50.840;4.948;2023-07-13T03:34:30;8.43;;;2.77;;
11135;SDS011;5622;50.840;4.948;2023-07-13T03:37:12;6.40;;;2.53;;
11135;SDS011;5622;50.840;4.948;2023-07-13T03:39:52;7.53;;;2.47;;
11135;SDS011;5622;50.840;4.948;2023-07-13T03:42:47;6.53;;;2.33;;
11135;SDS011;5622;50.840;4.948;2023-07-13T03:45:41;4.87;;;2.30;;
11135;SDS011;5622;50.840;4.948;2023-07-13T03:48:26;6.13;;;2.30;;
11135;SDS011;5622;50.840;4.948;2023-07-13T03:51:04;5.80;;;2.60;;
11135;SDS011;5622;50.840;4.948;2023-07-13T03:53:43;8.33;;;2.60;;
11135;SDS011;5622;50.840;4.948;2023-07-13T03:56:21;8.53;;;2.70;;
11135;SDS011;5622;50.840;4.948;2023-07-13T03:58:58;5.87;;;2.00;;
11135;SDS011;5622;50.840;4.948;2023-07-13T04:01:38;6.40;;;2.13;;
11135;SDS011;5622;50.840;4.948;2023-07-13T04:04:18;8.30;;;2.47;;
11135;SDS011;5622;50.840;4.948;2023-07-13T04:07:05;6.33;;;2.17;;
11135;SDS011;5622;50.840;4.948;2023-07-13T04:09:39;8.57;;;2.30;;
11135;SDS011;5622;50.840;4.948;2023-07-13T04:12:24;5.40;;;2.37;;
11135;SDS011;5622;50.840;4.948;2023-07-13T04:15:01;6.60;;;2.17;;
11135;SDS011;5622;50.840;4.948;2023-07-13T04:17:38;8.20;;;2.97;;
11135;SDS011;5622;50.840;4.948;2023-07-13T04:20:15;4.50;;;2.53;;
11135;SDS011;5622;50.840;4.948;2023-07-13T04:22:59;8.97;;;2.50;;
11135;SDS011;5622;50.840;4.948;2023-07-13T04:25:42;6.03;;;2.77;;
11135;SDS011;5622;50.840;4.948;2023-07-13T04:28:21;8.27;;;2.77;;
11135;SDS011;5622;50.840;4.948;2023-07-13T04:30:57;13.83;;;3.63;;
11135;SDS011;5622;50.840;4.948;2023-07-13T04:33:48;10.27;;;2.80;;
11135;SDS011;5622;50.840;4.948;2023-07-13T04:36:27;5.50;;;2.30;;
11135;SDS011;5622;50.840;4.948;2023-07-13T04:39:09;6.17;;;2.20;;
11135;SDS011;5622;50.840;4.948;2023-07-13T04:41:55;4.10;;;2.10;;
11135;SDS011;5622;50.840;4.948;2023-07-13T04:44:35;5.73;;;2.40;;
11135;SDS011;5622;50.840;4.948;2023-07-13T04:47:17;9.10;;;3.40;;
11135;SDS011;5622;50.840;4.948;2023-07-13T04:50:09;6.27;;;2.60;;
11135;SDS011;5622;50.840;4.948;2023-07-13T04:52:52;7.20;;;2.80;;
11135;SDS011;5622;50.840;4.948;2023-07-13T04:55:39;6.23;;;2.40;;
11135;SDS011;5622;50.840;4.948;2023-07-13T04:58:24;6.83;;;2.67;;
11135;SDS011;5622;50.840;4.948;2023-07-13T05:01:05;10.60;;;2.90;;
11135;SDS011;5622;50.840;4.948;2023-07-13T05:03:44;7.73;;;2.90;;
11135;SDS011;5622;50.840;4.948;2023-07-13T05:06:27;7.73;;;3.27;;
11135;SDS011;5622;50.840;4.948;2023-07-13T05:09:06;8.43;;;2.83;;
11135;SDS011;5622;50.840;4.948;2023-07-13T05:11:50;12.07;;;3.53;;
11135;SDS011;5622;50.840;4.948;2023-07-13T05:14:26;6.30;;;2.70;;
11135;SDS011;5622;50.840;4.948;2023-07-13T05:17:06;15.70;;;5.43;;
11135;SDS011;5622;50.840;4.948;2023-07-13T05:19:47;9.60;;;3.77;;
11135;SDS011;5622;50.840;4.948;2023-07-13T05:22:27;9.30;;;3.27;;
11135;SDS011;5622;50.840;4.948;2023-07-13T05:25:06;10.30;;;3.53;;
11135;SDS011;5622;50.840;4.948;2023-07-13T05:27:54;9.97;;;3.43;;
11135;SDS011;5622;50.840;4.948;2023-07-13T05:30:31;6.23;;;3.10;;
11135;SDS011;5622;50.840;4.948;2023-07-13T05:33:10;11.30;;;3.17;;
11135;SDS011;5622;50.840;4.948;2023-07-13T05:35:56;9.40;;;2.90;;
11135;SDS011;5622;50.840;4.948;2023-07-13T05:38:38;6.30;;;2.97;;
11135;SDS011;5622;50.840;4.948;2023-07-13T05:41:18;8.23;;;3.20;;
11135;SDS011;5622;50.840;4.948;2023-07-13T05:43:55;9.60;;;3.00;;
11135;SDS011;5622;50.840;4.948;2023-07-13T05:46:31;7.23;;;3.00;;
11135;SDS011;5622;50.840;4.948;2023-07-13T05:49:15;8.07;;;3.17;;
11135;SDS011;5622;50.840;4.948;2023-07-13T05:51:50;9.93;;;3.03;;
11135;SDS011;5622;50.840;4.948;2023-07-13T05:54:31;10.50;;;3.83;;
11135;SDS011;5622;50.840;4.948;2023-07-13T05:57:13;11.00;;;3.47;;
11135;SDS011;5622;50.840;4.948;2023-07-13T05:59:52;12.90;;;3.27;;
11135;SDS011;5622;50.840;4.948;2023-07-13T06:02:40;10.03;;;4.30;;
11135;SDS011;5622;50.840;4.948;2023-07-13T06:05:17;12.47;;;3.30;;
11135;SDS011;5622;50.840;4.948;2023-07-13T06:08:01;8.13;;;3.40;;
11135;SDS011;5622;50.840;4.948;2023-07-13T06:10:52;11.10;;;3.30;;
11135;SDS011;5622;50.840;4.948;2023-07-13T06:13:38;8.67;;;3.03;;
11135;SDS011;5622;50.840;4.948;2023-07-13T06:16:21;10.63;;;3.10;;
11135;SDS011;5622;50.840;4.948;2023-07-13T06:19:05;11.97;;;3.03;;
11135;SDS011;5622;50.840;4.948;2023-07-13T06:21:45;8.50;;;3.30;;
11135;SDS011;5622;50.840;4.948;2023-07-13T06:24:21;7.67;;;3.10;;
11135;SDS011;5622;50.840;4.948;2023-07-13T06:27:04;10.33;;;3.00;;
11135;SDS011;5622;50.840;4.948;2023-07-13T06:29:50;10.57;;;3.20;;
11135;SDS011;5622;50.840;4.948;2023-07-13T06:32:42;14.87;;;3.83;;
11135;SDS011;5622;50.840;4.948;2023-07-13T06:35:20;11.33;;;3.57;;
11135;SDS011;5622;50.840;4.948;2023-07-13T06:37:58;9.70;;;3.00;;
11135;SDS011;5622;50.840;4.948;2023-07-13T06:40:38;12.17;;;3.33;;
11135;SDS011;5622;50.840;4.948;2023-07-13T06:43:17;9.20;;;3.03;;
11135;SDS011;5622;50.840;4.948;2023-07-13T06:46:01;7.07;;;3.30;;
11135;SDS011;5622;50.840;4.948;2023-07-13T06:48:51;7.37;;;3.13;;
11135;SDS011;5622;50.840;4.948;2023-07-13T06:51:32;9.37;;;3.47;;
11135;SDS011;5622;50.840;4.948;2023-07-13T06:54:11;10.33;;;3.63;;
11135;SDS011;5622;50.840;4.948;2023-07-13T06:56:49;10.73;;;3.60;;
11135;SDS011;5622;50.840;4.948;2023-07-13T06:59:25;11.87;;;3.53;;
11135;SDS011;5622;50.840;4.948;2023-07-13T07:02:05;7.80;;;3.40;;
11135;SDS011;5622;50.840;4.948;2023-07-13T07:04:51;12.93;;;3.93;;
11135;SDS011;5622;50.840;4.948;2023-07-13T07:07:32;11.43;;;3.67;;
11135;SDS011;5622;50.840;4.948;2023-07-13T07:10:09;10.27;;;3.20;;
11135;SDS011;5622;50.840;4.948;2023-07-13T07:12:46;10.03;;;3.70;;
11135;SDS011;5622;50.840;4.948;2023-07-13T07:15:26;5.47;;;2.80;;
11135;SDS011;5622;50.840;4.948;2023-07-13T07:18:08;9.40;;;3.47;;
11135;SDS011;5622;50.840;4.948;2023-07-13T07:20:53;9.57;;;3.50;;
11135;SDS011;5622;50.840;4.948;2023-07-13T07:23:36;8.57;;;3.63;;
11135;SDS011;5622;50.840;4.948;2023-07-13T07:26:10;12.73;;;3.43;;
11135;SDS011;5622;50.840;4.948;2023-07-13T07:28:55;9.40;;;3.30;;
11135;SDS011;5622;50.840;4.948;2023-07-13T07:31:38;9.27;;;3.20;;
11135;SDS011;5622;50.840;4.948;2023-07-13T07:34:17;11.20;;;3.50;;
11135;SDS011;5622;50.840;4.948;2023-07-13T07:37:00;11.53;;;3.73;;
11135;SDS011;5622;50.840;4.948;2023-07-13T07:39:45;10.50;;;3.43;;
11135;SDS011;5622;50.840;4.948;2023-07-13T07:42:26;9.33;;;3.33;;
11135;SDS011;5622;50.840;4.948;2023-07-13T07:45:05;8.07;;;3.37;;
11135;SDS011;5622;50.840;4.948;2023-07-13T07:47:45;8.47;;;3.03;;
11135;SDS011;5622;50.840;4.948;2023-07-13T07:50:27;13.73;;;4.03;;
11135;SDS011;5622;50.840;4.948;2023-07-13T07:53:16;11.63;;;3.17;;
11135;SDS011;5622;50.840;4.948;2023-07-13T07:55:49;11.13;;;3.60;;
11135;SDS011;5622;50.840;4.948;2023-07-13T07:58:24;8.37;;;3.13;;
11135;SDS011;5622;50.840;4.948;2023-07-13T08:01:07;8.53;;;2.97;;
11135;SDS011;5622;50.840;4.948;2023-07-13T08:03:45;12.57;;;3.47;;
11135;SDS011;5622;50.840;4.948;2023-07-13T08:06:28;10.00;;;3.00;;
11135;SDS011;5622;50.840;4.948;2023-07-13T08:09:18;8.10;;;3.60;;
11135;SDS011;5622;50.840;4.948;2023-07-13T08:12:00;9.03;;;3.00;;
11135;SDS011;5622;50.840;4.948;2023-07-13T08:14:35;11.67;;;2.87;;
11135;SDS011;5622;50.840;4.948;2023-07-13T08:17:16;7.93;;;2.90;;
11135;SDS011;5622;50.840;4.948;2023-07-13T08:20:04;12.93;;;3.33;;
11135;SDS011;5622;50.840;4.948;2023-07-13T08:22:42;9.20;;;3.40;;
11135;SDS011;5622;50.840;4.948;2023-07-13T08:25:25;9.13;;;3.47;;
11135;SDS011;5622;50.840;4.948;2023-07-13T08:28:06;6.27;;;3.00;;
11135;SDS011;5622;50.840;4.948;2023-07-13T08:30:43;9.47;;;3.17;;
11135;SDS011;5622;50.840;4.948;2023-07-13T08:33:30;6.23;;;2.70;;
11135;SDS011;5622;50.840;4.948;2023-07-13T08:36:06;9.53;;;3.33;;
11135;SDS011;5622;50.840;4.948;2023-07-13T08:38:41;6.63;;;2.73;;
11135;SDS011;5622;50.840;4.948;2023-07-13T08:41:28;6.20;;;2.93;;
11135;SDS011;5622;50.840;4.948;2023-07-13T08:44:14;8.60;;;3.23;;
11135;SDS011;5622;50.840;4.948;2023-07-13T08:47:09;9.27;;;3.53;;
11135;SDS011;5622;50.840;4.948;2023-07-13T08:49:49;8.57;;;2.80;;
11135;SDS011;5622;50.840;4.948;2023-07-13T08:52:31;6.40;;;2.33;;
11135;SDS011;5622;50.840;4.948;2023-07-13T08:55:20;7.43;;;3.20;;
11135;SDS011;5622;50.840;4.948;2023-07-13T08:58:06;9.47;;;2.97;;
11135;SDS011;5622;50.840;4.948;2023-07-13T09:00:52;8.80;;;4.00;;
11135;SDS011;5622;50.840;4.948;2023-07-13T09:03:45;6.43;;;2.77;;
11135;SDS011;5622;50.840;4.948;2023-07-13T09:06:56;6.87;;;3.10;;
11135;SDS011;5622;50.840;4.948;2023-07-13T09:09:43;6.40;;;2.80;;
11135;SDS011;5622;50.840;4.948;2023-07-13T09:12:31;8.07;;;2.90;;
11135;SDS011;5622;50.840;4.948;2023-07-13T09:15:28;7.30;;;2.83;;
11135;SDS011;5622;50.840;4.948;2023-07-13T09:18:07;4.47;;;2.40;;
11135;SDS011;5622;50.840;4.948;2023-07-13T09:20:47;6.63;;;2.50;;
11135;SDS011;5622;50.840;4.948;2023-07-13T09:23:34;5.63;;;2.60;;
11135;SDS011;5622;50.840;4.948;2023-07-13T09:26:06;5.43;;;2.20;;
11135;SDS011;5622;50.840;4.948;2023-07-13T09:28:51;7.63;;;2.53;;
11135;SDS011;5622;50.840;4.948;2023-07-13T09:31:38;5.00;;;2.37;;
11135;SDS011;5622;50.840;4.948;2023-07-13T09:34:17;8.87;;;2.70;;
11135;SDS011;5622;50.840;4.948;2023-07-13T09:37:00;10.33;;;2.70;;
11135;SDS011;5622;50.840;4.948;2023-07-13T09:39:53;7.83;;;2.60;;
11135;SDS011;5622;50.840;4.948;2023-07-13T09:42:36;6.90;;;2.50;;
11135;SDS011;5622;50.840;4.948;2023-07-13T09:45:11;7.13;;;2.10;;
11135;SDS011;5622;50.840;4.948;2023-07-13T09:48:10;6.70;;;2.27;;
11135;SDS011;5622;50.840;4.948;2023-07-13T09:50:54;6.00;;;2.07;;
11135;SDS011;5622;50.840;4.948;2023-07-13T09:53:43;5.33;;;2.30;;
11135;SDS011;5622;50.840;4.948;2023-07-13T09:56:27;5.77;;;2.50;;
11135;SDS011;5622;50.840;4.948;2023-07-13T09:59:04;6.63;;;2.27;;
11135;SDS011;5622;50.840;4.948;2023-07-13T10:01:57;5.57;;;2.40;;
11135;SDS011;5622;50.840;4.948;2023-07-13T10:05:05;4.13;;;1.90;;
11135;SDS011;5622;50.840;4.948;2023-07-13T10:07:55;8.23;;;2.37;;
11135;SDS011;5622;50.840;4.948;2023-07-13T10:10:37;7.57;;;2.23;;
11135;SDS011;5622;50.840;4.948;2023-07-13T10:16:23;7.87;;;2.40;;
11135;SDS011;5622;50.840;4.948;2023-07-13T10:19:10;3.83;;;2.10;;
11135;SDS011;5622;50.840;4.948;2023-07-13T10:22:03;4.40;;;2.40;;
11135;SDS011;5622;50.840;4.948;2023-07-13T10:24:47;6.13;;;2.10;;
11135;SDS011;5622;50.840;4.948;2023-07-13T10:27:29;9.30;;;2.50;;
11135;SDS011;5622;50.840;4.948;2023-07-13T10:30:13;3.93;;;2.20;;
11135;SDS011;5622;50.840;4.948;2023-07-13T10:33:00;6.00;;;2.20;;
11135;SDS011;5622;50.840;4.948;2023-07-13T10:35:51;5.77;;;2.10;;
11135;SDS011;5622;50.840;4.948;2023-07-13T10:38:48;4.37;;;2.40;;
11135;SDS011;5622;50.840;4.948;2023-07-13T10:41:29;4.90;;;2.40;;
11135;SDS011;5622;50.840;4.948;2023-07-13T10:44:19;6.53;;;2.50;;
11135;SDS011;5622;50.840;4.948;2023-07-13T10:47:04;5.53;;;2.00;;
11135;SDS011;5622;50.840;4.948;2023-07-13T10:49:52;5.00;;;2.50;;
11135;SDS011;5622;50.840;4.948;2023-07-13T10:55:41;3.37;;;1.87;;
11135;SDS011;5622;50.840;4.948;2023-07-13T10:58:44;6.73;;;2.40;;
11135;SDS011;5622;50.840;4.948;2023-07-13T11:01:41;6.93;;;2.17;;
11135;SDS011;5622;50.840;4.948;2023-07-13T12:06:19;4.53;;;2.03;;
11135;SDS011;5622;50.840;4.948;2023-07-13T12:09:44;5.50;;;1.97;;
11135;SDS011;5622;50.840;4.948;2023-07-13T12:12:50;4.73;;;1.80;;
11135;SDS011;5622;50.840;4.948;2023-07-13T12:29:51;4.77;;;1.70;;
11135;SDS011;5622;50.840;4.948;2023-07-13T12:33:13;3.17;;;1.83;;
11135;SDS011;5622;50.840;4.948;2023-07-13T12:36:48;2.33;;;1.77;;
11135;SDS011;5622;50.840;4.948;2023-07-13T12:50:12;8.43;;;2.13;;
